Terminal Aerodrome Forecast
Issued by NWS Charleston, WV

Current Version | Previous Version | Graphics & Text | Print | Product List | Glossary On
Versions: 1 2 3 4 5 6 7 8 9 10 11 12 13 14 15 16 17 18 19 20 21 22 23 24 25 26 27 28 29
000
FTUS41 KRLX 211305 AAA
TAFCRW
TAF AMD
KCRW 211305Z 2113/2212 VRB03KT 5SM -RA OVC025
      TEMPO 2113/2114 1SM -RA BR BKN002
     FM211500 VRB03KT P6SM OVC035
     FM220000 31005KT P6SM BKN025
     FM220300 00000KT P6SM BKN025
     FM220500 00000KT P6SM SCT045
     FM220900 00000KT P6SM SCT150=

USA.gov is the U.S. government's official web portal to all federal, state and local government web resources and services.